sensor_id;sensor_type;location;lat;lon;timestamp;P1;durP1;ratioP1;P2;durP2;ratioP2
10120;SDS011;5100;45.176;5.714;2023-02-28T00:00:34;7.07;;;6.53;;
10120;SDS011;5100;45.176;5.714;2023-02-28T00:03:02;7.63;;;7.00;;
10120;SDS011;5100;45.176;5.714;2023-02-28T00:05:28;7.90;;;7.30;;
10120;SDS011;5100;45.176;5.714;2023-02-28T00:07:55;7.87;;;7.17;;
10120;SDS011;5100;45.176;5.714;2023-02-28T00:10:22;7.90;;;7.30;;
10120;SDS011;5100;45.176;5.714;2023-02-28T00:12:53;7.87;;;7.23;;
10120;SDS011;5100;45.176;5.714;2023-02-28T00:15:22;7.83;;;7.23;;
10120;SDS011;5100;45.176;5.714;2023-02-28T00:17:49;7.33;;;6.80;;
10120;SDS011;5100;45.176;5.714;2023-02-28T00:20:15;7.57;;;6.97;;
10120;SDS011;5100;45.176;5.714;2023-02-28T00:22:44;7.63;;;6.90;;
10120;SDS011;5100;45.176;5.714;2023-02-28T00:25:13;7.70;;;7.10;;
10120;SDS011;5100;45.176;5.714;2023-02-28T00:27:40;7.83;;;7.23;;
10120;SDS011;5100;45.176;5.714;2023-02-28T00:30:08;8.10;;;7.37;;
10120;SDS011;5100;45.176;5.714;2023-02-28T00:32:37;8.27;;;7.57;;
10120;SDS011;5100;45.176;5.714;2023-02-28T00:35:03;7.87;;;7.23;;
10120;SDS011;5100;45.176;5.714;2023-02-28T00:37:30;7.77;;;7.17;;
10120;SDS011;5100;45.176;5.714;2023-02-28T00:39:56;7.63;;;7.03;;
10120;SDS011;5100;45.176;5.714;2023-02-28T00:42:23;7.73;;;7.13;;
10120;SDS011;5100;45.176;5.714;2023-02-28T00:44:49;8.27;;;7.47;;
10120;SDS011;5100;45.176;5.714;2023-02-28T00:47:15;8.03;;;7.43;;
10120;SDS011;5100;45.176;5.714;2023-02-28T00:49:42;8.33;;;7.63;;
10120;SDS011;5100;45.176;5.714;2023-02-28T00:52:09;8.43;;;7.70;;
10120;SDS011;5100;45.176;5.714;2023-02-28T00:54:35;8.53;;;7.83;;
10120;SDS011;5100;45.176;5.714;2023-02-28T00:57:01;8.30;;;7.70;;
10120;SDS011;5100;45.176;5.714;2023-02-28T00:59:27;9.00;;;8.20;;
10120;SDS011;5100;45.176;5.714;2023-02-28T01:01:53;8.87;;;8.07;;
10120;SDS011;5100;45.176;5.714;2023-02-28T01:04:20;7.93;;;7.33;;
10120;SDS011;5100;45.176;5.714;2023-02-28T01:06:47;7.90;;;7.20;;
10120;SDS011;5100;45.176;5.714;2023-02-28T01:09:13;8.67;;;7.97;;
10120;SDS011;5100;45.176;5.714;2023-02-28T01:11:41;8.63;;;7.83;;
10120;SDS011;5100;45.176;5.714;2023-02-28T01:14:12;8.80;;;8.10;;
10120;SDS011;5100;45.176;5.714;2023-02-28T01:16:39;8.27;;;7.57;;
10120;SDS011;5100;45.176;5.714;2023-02-28T01:19:05;8.37;;;7.67;;
10120;SDS011;5100;45.176;5.714;2023-02-28T01:21:32;8.53;;;7.90;;
10120;SDS011;5100;45.176;5.714;2023-02-28T01:23:58;7.77;;;7.17;;
10120;SDS011;5100;45.176;5.714;2023-02-28T01:26:24;8.63;;;7.97;;
10120;SDS011;5100;45.176;5.714;2023-02-28T01:28:51;8.00;;;7.40;;
10120;SDS011;5100;45.176;5.714;2023-02-28T01:31:18;8.67;;;7.97;;
10120;SDS011;5100;45.176;5.714;2023-02-28T01:33:45;8.60;;;7.93;;
10120;SDS011;5100;45.176;5.714;2023-02-28T01:36:16;8.47;;;7.87;;
10120;SDS011;5100;45.176;5.714;2023-02-28T01:38:44;8.47;;;7.77;;
10120;SDS011;5100;45.176;5.714;2023-02-28T01:41:20;9.77;;;7.73;;
10120;SDS011;5100;45.176;5.714;2023-02-28T01:46:13;8.33;;;7.73;;
10120;SDS011;5100;45.176;5.714;2023-02-28T01:48:44;9.40;;;8.67;;
10120;SDS011;5100;45.176;5.714;2023-02-28T01:51:18;9.13;;;8.33;;
10120;SDS011;5100;45.176;5.714;2023-02-28T01:54:12;8.50;;;7.80;;
10120;SDS011;5100;45.176;5.714;2023-02-28T01:56:46;8.13;;;7.53;;
10120;SDS011;5100;45.176;5.714;2023-02-28T01:59:42;8.80;;;8.00;;
10120;SDS011;5100;45.176;5.714;2023-02-28T02:02:12;9.27;;;8.47;;
10120;SDS011;5100;45.176;5.714;2023-02-28T02:04:42;8.90;;;8.10;;
10120;SDS011;5100;45.176;5.714;2023-02-28T02:07:16;9.10;;;8.40;;
10120;SDS011;5100;45.176;5.714;2023-02-28T02:09:43;9.37;;;8.67;;
10120;SDS011;5100;45.176;5.714;2023-02-28T02:15:08;9.03;;;8.33;;
10120;SDS011;5100;45.176;5.714;2023-02-28T02:18:00;8.63;;;7.97;;
10120;SDS011;5100;45.176;5.714;2023-02-28T02:25:58;9.13;;;8.43;;
10120;SDS011;5100;45.176;5.714;2023-02-28T02:34:56;8.87;;;8.17;;
10120;SDS011;5100;45.176;5.714;2023-02-28T02:40:22;9.87;;;9.07;;
10120;SDS011;5100;45.176;5.714;2023-02-28T02:45:45;9.53;;;8.73;;
10120;SDS011;5100;45.176;5.714;2023-02-28T02:48:18;9.90;;;9.00;;
10120;SDS011;5100;45.176;5.714;2023-02-28T02:50:49;10.07;;;9.07;;
10120;SDS011;5100;45.176;5.714;2023-02-28T02:53:22;9.67;;;8.97;;
10120;SDS011;5100;45.176;5.714;2023-02-28T02:55:54;9.47;;;8.60;;
10120;SDS011;5100;45.176;5.714;2023-02-28T02:58:24;9.77;;;8.97;;
10120;SDS011;5100;45.176;5.714;2023-02-28T03:00:55;9.10;;;8.40;;
10120;SDS011;5100;45.176;5.714;2023-02-28T03:03:25;9.90;;;9.00;;
10120;SDS011;5100;45.176;5.714;2023-02-28T03:05:59;9.67;;;8.93;;
10120;SDS011;5100;45.176;5.714;2023-02-28T03:08:27;9.53;;;8.73;;
10120;SDS011;5100;45.176;5.714;2023-02-28T03:10:58;9.53;;;8.73;;
10120;SDS011;5100;45.176;5.714;2023-02-28T03:27:27;10.30;;;9.40;;
10120;SDS011;5100;45.176;5.714;2023-02-28T03:32:59;10.30;;;9.40;;
10120;SDS011;5100;45.176;5.714;2023-02-28T03:35:42;10.13;;;9.10;;
10120;SDS011;5100;45.176;5.714;2023-02-28T03:41:06;9.83;;;9.03;;
10120;SDS011;5100;45.176;5.714;2023-02-28T03:43:42;9.73;;;8.83;;
10120;SDS011;5100;45.176;5.714;2023-02-28T03:46:16;10.20;;;9.40;;
10120;SDS011;5100;45.176;5.714;2023-02-28T03:48:56;10.33;;;9.43;;
10120;SDS011;5100;45.176;5.714;2023-02-28T03:51:29;9.87;;;9.00;;
10120;SDS011;5100;45.176;5.714;2023-02-28T03:53:58;10.20;;;9.40;;
10120;SDS011;5100;45.176;5.714;2023-02-28T03:56:37;10.27;;;9.47;;
10120;SDS011;5100;45.176;5.714;2023-02-28T03:59:15;10.13;;;9.30;;
10120;SDS011;5100;45.176;5.714;2023-02-28T04:01:58;10.43;;;9.53;;
10120;SDS011;5100;45.176;5.714;2023-02-28T04:04:25;10.37;;;9.47;;
10120;SDS011;5100;45.176;5.714;2023-02-28T04:06:51;10.17;;;9.37;;
10120;SDS011;5100;45.176;5.714;2023-02-28T04:09:18;10.70;;;9.73;;
10120;SDS011;5100;45.176;5.714;2023-02-28T04:11:45;10.27;;;9.47;;
10120;SDS011;5100;45.176;5.714;2023-02-28T04:14:21;10.30;;;9.50;;
10120;SDS011;5100;45.176;5.714;2023-02-28T04:16:48;10.70;;;9.80;;
10120;SDS011;5100;45.176;5.714;2023-02-28T04:19:15;9.87;;;9.03;;
10120;SDS011;5100;45.176;5.714;2023-02-28T04:21:42;10.50;;;9.60;;
10120;SDS011;5100;45.176;5.714;2023-02-28T04:24:14;10.80;;;9.80;;
10120;SDS011;5100;45.176;5.714;2023-02-28T04:26:44;10.30;;;9.40;;
10120;SDS011;5100;45.176;5.714;2023-02-28T04:29:27;10.53;;;9.63;;
10120;SDS011;5100;45.176;5.714;2023-02-28T04:31:55;11.50;;;10.50;;
10120;SDS011;5100;45.176;5.714;2023-02-28T04:34:23;11.33;;;10.33;;
10120;SDS011;5100;45.176;5.714;2023-02-28T04:36:51;10.43;;;9.40;;
10120;SDS011;5100;45.176;5.714;2023-02-28T04:39:20;11.43;;;10.53;;
10120;SDS011;5100;45.176;5.714;2023-02-28T04:41:47;11.37;;;10.27;;
10120;SDS011;5100;45.176;5.714;2023-02-28T04:44:13;10.83;;;9.93;;
10120;SDS011;5100;45.176;5.714;2023-02-28T04:46:40;12.07;;;10.70;;
10120;SDS011;5100;45.176;5.714;2023-02-28T04:49:08;10.90;;;10.00;;
10120;SDS011;5100;45.176;5.714;2023-02-28T04:51:36;12.17;;;11.00;;
10120;SDS011;5100;45.176;5.714;2023-02-28T04:54:02;11.03;;;10.13;;
10120;SDS011;5100;45.176;5.714;2023-02-28T04:56:30;10.63;;;9.63;;
10120;SDS011;5100;45.176;5.714;2023-02-28T04:58:56;11.67;;;10.67;;
10120;SDS011;5100;45.176;5.714;2023-02-28T05:03:56;11.10;;;10.20;;
10120;SDS011;5100;45.176;5.714;2023-02-28T05:06:25;11.23;;;10.23;;
10120;SDS011;5100;45.176;5.714;2023-02-28T05:08:53;11.73;;;10.63;;
10120;SDS011;5100;45.176;5.714;2023-02-28T05:13:54;10.87;;;9.97;;
10120;SDS011;5100;45.176;5.714;2023-02-28T05:16:21;12.37;;;11.27;;
10120;SDS011;5100;45.176;5.714;2023-02-28T05:18:47;11.60;;;10.60;;
10120;SDS011;5100;45.176;5.714;2023-02-28T05:21:22;11.87;;;10.80;;
10120;SDS011;5100;45.176;5.714;2023-02-28T05:23:50;11.40;;;10.43;;
10120;SDS011;5100;45.176;5.714;2023-02-28T05:26:17;10.97;;;10.07;;
10120;SDS011;5100;45.176;5.714;2023-02-28T05:28:44;11.40;;;10.30;;
10120;SDS011;5100;45.176;5.714;2023-02-28T05:31:10;10.83;;;9.93;;
10120;SDS011;5100;45.176;5.714;2023-02-28T05:33:37;10.67;;;9.87;;
10120;SDS011;5100;45.176;5.714;2023-02-28T05:36:03;11.87;;;10.77;;
10120;SDS011;5100;45.176;5.714;2023-02-28T05:38:30;11.27;;;10.37;;
10120;SDS011;5100;45.176;5.714;2023-02-28T05:40:56;11.37;;;10.17;;
10120;SDS011;5100;45.176;5.714;2023-02-28T05:43:22;10.57;;;9.67;;
10120;SDS011;5100;45.176;5.714;2023-02-28T05:45:49;11.53;;;10.43;;
10120;SDS011;5100;45.176;5.714;2023-02-28T05:48:15;11.10;;;10.10;;
10120;SDS011;5100;45.176;5.714;2023-02-28T05:50:42;10.23;;;9.33;;
10120;SDS011;5100;45.176;5.714;2023-02-28T05:53:10;10.77;;;9.77;;
10120;SDS011;5100;45.176;5.714;2023-02-28T05:55:36;10.50;;;9.57;;
10120;SDS011;5100;45.176;5.714;2023-02-28T05:58:03;10.37;;;9.47;;
10120;SDS011;5100;45.176;5.714;2023-02-28T06:00:29;10.00;;;9.30;;
10120;SDS011;5100;45.176;5.714;2023-02-28T06:02:56;10.97;;;9.90;;
10120;SDS011;5100;45.176;5.714;2023-02-28T06:05:25;10.77;;;9.70;;
10120;SDS011;5100;45.176;5.714;2023-02-28T06:07:51;10.13;;;9.33;;
10120;SDS011;5100;45.176;5.714;2023-02-28T06:10:17;10.43;;;9.53;;
10120;SDS011;5100;45.176;5.714;2023-02-28T06:12:45;11.53;;;10.53;;
10120;SDS011;5100;45.176;5.714;2023-02-28T06:15:14;10.57;;;9.53;;
10120;SDS011;5100;45.176;5.714;2023-02-28T06:17:41;11.17;;;10.10;;
10120;SDS011;5100;45.176;5.714;2023-02-28T06:20:09;11.37;;;10.03;;
10120;SDS011;5100;45.176;5.714;2023-02-28T06:22:38;10.17;;;9.27;;
10120;SDS011;5100;45.176;5.714;2023-02-28T06:25:05;11.27;;;10.20;;
10120;SDS011;5100;45.176;5.714;2023-02-28T06:27:33;11.37;;;10.40;;
10120;SDS011;5100;45.176;5.714;2023-02-28T06:29:59;11.17;;;10.07;;
10120;SDS011;5100;45.176;5.714;2023-02-28T06:32:26;10.63;;;9.63;;
10120;SDS011;5100;45.176;5.714;2023-02-28T06:34:52;11.03;;;10.03;;
10120;SDS011;5100;45.176;5.714;2023-02-28T06:37:18;10.90;;;10.00;;
10120;SDS011;5100;45.176;5.714;2023-02-28T06:39:45;10.77;;;9.70;;
10120;SDS011;5100;45.176;5.714;2023-02-28T06:42:11;10.80;;;10.00;;
10120;SDS011;5100;45.176;5.714;2023-02-28T06:44:37;10.33;;;9.43;;
10120;SDS011;5100;45.176;5.714;2023-02-28T06:47:05;11.60;;;10.53;;
10120;SDS011;5100;45.176;5.714;2023-02-28T06:49:32;11.87;;;9.73;;
10120;SDS011;5100;45.176;5.714;2023-02-28T06:51:59;10.60;;;9.60;;
10120;SDS011;5100;45.176;5.714;2023-02-28T06:54:26;10.47;;;9.57;;
10120;SDS011;5100;45.176;5.714;2023-02-28T06:56:52;10.50;;;9.70;;
10120;SDS011;5100;45.176;5.714;2023-02-28T06:59:19;10.57;;;9.67;;
10120;SDS011;5100;45.176;5.714;2023-02-28T07:01:46;10.57;;;9.57;;
10120;SDS011;5100;45.176;5.714;2023-02-28T07:04:12;10.37;;;9.47;;
10120;SDS011;5100;45.176;5.714;2023-02-28T07:06:38;11.23;;;10.33;;
10120;SDS011;5100;45.176;5.714;2023-02-28T07:09:05;10.90;;;9.97;;
10120;SDS011;5100;45.176;5.714;2023-02-28T07:11:31;10.27;;;9.37;;
10120;SDS011;5100;45.176;5.714;2023-02-28T07:13:57;10.77;;;9.77;;
10120;SDS011;5100;45.176;5.714;2023-02-28T07:16:24;10.50;;;9.53;;
10120;SDS011;5100;45.176;5.714;2023-02-28T07:18:54;11.33;;;10.13;;
10120;SDS011;5100;45.176;5.714;2023-02-28T07:21:20;10.03;;;9.23;;
10120;SDS011;5100;45.176;5.714;2023-02-28T07:23:47;10.87;;;9.87;;
10120;SDS011;5100;45.176;5.714;2023-02-28T07:26:14;11.73;;;10.60;;
10120;SDS011;5100;45.176;5.714;2023-02-28T07:28:42;11.23;;;10.13;;
10120;SDS011;5100;45.176;5.714;2023-02-28T07:31:09;11.57;;;10.57;;
10120;SDS011;5100;45.176;5.714;2023-02-28T07:33:36;10.90;;;10.00;;
10120;SDS011;5100;45.176;5.714;2023-02-28T07:36:03;11.00;;;10.00;;
10120;SDS011;5100;45.176;5.714;2023-02-28T07:38:35;11.13;;;10.20;;
10120;SDS011;5100;45.176;5.714;2023-02-28T07:41:03;10.37;;;9.57;;
10120;SDS011;5100;45.176;5.714;2023-02-28T07:43:33;10.87;;;10.00;;
10120;SDS011;5100;45.176;5.714;2023-02-28T07:48:30;11.30;;;10.20;;
10120;SDS011;5100;45.176;5.714;2023-02-28T07:50:57;12.10;;;10.13;;
10120;SDS011;5100;45.176;5.714;2023-02-28T07:53:24;11.07;;;10.17;;
10120;SDS011;5100;45.176;5.714;2023-02-28T07:55:50;11.30;;;10.30;;
10120;SDS011;5100;45.176;5.714;2023-02-28T07:58:17;10.70;;;9.80;;
10120;SDS011;5100;45.176;5.714;2023-02-28T08:00:43;10.80;;;9.97;;
10120;SDS011;5100;45.176;5.714;2023-02-28T08:03:12;10.33;;;9.33;;
10120;SDS011;5100;45.176;5.714;2023-02-28T08:05:39;11.67;;;9.50;;
10120;SDS011;5100;45.176;5.714;2023-02-28T08:08:06;10.40;;;9.47;;
10120;SDS011;5100;45.176;5.714;2023-02-28T08:10:33;10.50;;;9.50;;
10120;SDS011;5100;45.176;5.714;2023-02-28T08:12:59;10.43;;;9.53;;
10120;SDS011;5100;45.176;5.714;2023-02-28T08:15:26;10.07;;;8.27;;
10120;SDS011;5100;45.176;5.714;2023-02-28T08:17:52;11.70;;;8.80;;
10120;SDS011;5100;45.176;5.714;2023-02-28T08:20:18;9.27;;;8.47;;
10120;SDS011;5100;45.176;5.714;2023-02-28T08:22:44;10.37;;;9.40;;
10120;SDS011;5100;45.176;5.714;2023-02-28T08:25:11;10.33;;;9.47;;
10120;SDS011;5100;45.176;5.714;2023-02-28T08:27:37;10.63;;;9.63;;
10120;SDS011;5100;45.176;5.714;2023-02-28T08:30:03;10.57;;;9.53;;
10120;SDS011;5100;45.176;5.714;2023-02-28T08:32:29;10.23;;;9.23;;
10120;SDS011;5100;45.176;5.714;2023-02-28T08:34:57;10.47;;;9.47;;
10120;SDS011;5100;45.176;5.714;2023-02-28T08:37:23;14.33;;;10.03;;
10120;SDS011;5100;45.176;5.714;2023-02-28T08:39:50;10.93;;;9.93;;
10120;SDS011;5100;45.176;5.714;2023-02-28T08:42:16;12.00;;;10.00;;
10120;SDS011;5100;45.176;5.714;2023-02-28T08:44:41;11.10;;;9.93;;
10120;SDS011;5100;45.176;5.714;2023-02-28T08:47:08;11.37;;;10.43;;
10120;SDS011;5100;45.176;5.714;2023-02-28T08:49:34;10.80;;;9.90;;
10120;SDS011;5100;45.176;5.714;2023-02-28T08:52:00;11.23;;;10.20;;
10120;SDS011;5100;45.176;5.714;2023-02-28T08:54:26;10.90;;;9.87;;
10120;SDS011;5100;45.176;5.714;2023-02-28T08:56:55;10.97;;;9.90;;
10120;SDS011;5100;45.176;5.714;2023-02-28T08:59:22;11.00;;;10.03;;
10120;SDS011;5100;45.176;5.714;2023-02-28T09:01:48;12.20;;;10.97;;
10120;SDS011;5100;45.176;5.714;2023-02-28T09:04:14;11.00;;;10.00;;
10120;SDS011;5100;45.176;5.714;2023-02-28T09:06:40;11.50;;;10.50;;
10120;SDS011;5100;45.176;5.714;2023-02-28T09:09:06;10.50;;;9.60;;
10120;SDS011;5100;45.176;5.714;2023-02-28T09:11:34;12.27;;;10.63;;
10120;SDS011;5100;45.176;5.714;2023-02-28T09:14:01;10.97;;;10.07;;
10120;SDS011;5100;45.176;5.714;2023-02-28T09:16:29;11.47;;;10.37;;
10120;SDS011;5100;45.176;5.714;2023-02-28T09:18:56;11.33;;;10.23;;
10120;SDS011;5100;45.176;5.714;2023-02-28T09:21:22;11.80;;;10.80;;
10120;SDS011;5100;45.176;5.714;2023-02-28T09:23:49;11.63;;;10.50;;
10120;SDS011;5100;45.176;5.714;2023-02-28T09:26:17;11.73;;;10.73;;
10120;SDS011;5100;45.176;5.714;2023-02-28T09:28:45;11.97;;;10.90;;
10120;SDS011;5100;45.176;5.714;2023-02-28T09:31:16;11.87;;;10.77;;
10120;SDS011;5100;45.176;5.714;2023-02-28T09:33:48;11.80;;;10.70;;
10120;SDS011;5100;45.176;5.714;2023-02-28T09:36:16;13.60;;;12.40;;
10120;SDS011;5100;45.176;5.714;2023-02-28T09:38:42;12.63;;;11.43;;
10120;SDS011;5100;45.176;5.714;2023-02-28T09:41:13;12.53;;;11.33;;
10120;SDS011;5100;45.176;5.714;2023-02-28T09:43:43;12.83;;;11.60;;
10120;SDS011;5100;45.176;5.714;2023-02-28T09:49:16;12.23;;;11.03;;
10120;SDS011;5100;45.176;5.714;2023-02-28T09:51:53;15.43;;;13.93;;
10120;SDS011;5100;45.176;5.714;2023-02-28T09:54:28;12.53;;;11.30;;
10120;SDS011;5100;45.176;5.714;2023-02-28T09:56:57;11.73;;;10.53;;
10120;SDS011;5100;45.176;5.714;2023-02-28T10:05:13;11.60;;;10.50;;
10120;SDS011;5100;45.176;5.714;2023-02-28T10:10:29;14.07;;;11.23;;
10120;SDS011;5100;45.176;5.714;2023-02-28T10:15:54;11.10;;;10.00;;
10120;SDS011;5100;45.176;5.714;2023-02-28T10:18:31;12.23;;;11.00;;
10120;SDS011;5100;45.176;5.714;2023-02-28T10:21:14;13.20;;;10.93;;
10120;SDS011;5100;45.176;5.714;2023-02-28T10:23:59;12.95;;;11.75;;
10120;SDS011;5100;45.176;5.714;2023-02-28T10:26:43;10.70;;;9.70;;
10120;SDS011;5100;45.176;5.714;2023-02-28T10:29:10;12.30;;;11.20;;
10120;SDS011;5100;45.176;5.714;2023-02-28T10:31:36;12.87;;;11.53;;
10120;SDS011;5100;45.176;5.714;2023-02-28T10:34:04;13.03;;;11.90;;
10120;SDS011;5100;45.176;5.714;2023-02-28T10:36:31;13.47;;;12.00;;
10120;SDS011;5100;45.176;5.714;2023-02-28T10:38:58;13.10;;;11.83;;
10120;SDS011;5100;45.176;5.714;2023-02-28T10:44:13;12.30;;;11.10;;
10120;SDS011;5100;45.176;5.714;2023-02-28T10:46:48;13.70;;;12.50;;
10120;SDS011;5100;45.176;5.714;2023-02-28T10:49:17;13.50;;;12.27;;
10120;SDS011;5100;45.176;5.714;2023-02-28T10:51:46;13.40;;;12.20;;
10120;SDS011;5100;45.176;5.714;2023-02-28T10:54:22;13.40;;;12.40;;
10120;SDS011;5100;45.176;5.714;2023-02-28T10:57:15;13.77;;;12.67;;
10120;SDS011;5100;45.176;5.714;2023-02-28T10:59:41;13.60;;;12.40;;
10120;SDS011;5100;45.176;5.714;2023-02-28T11:02:28;13.87;;;12.57;;
10120;SDS011;5100;45.176;5.714;2023-02-28T11:04:57;12.50;;;11.40;;
10120;SDS011;5100;45.176;5.714;2023-02-28T11:07:25;14.10;;;12.80;;
10120;SDS011;5100;45.176;5.714;2023-02-28T11:09:57;13.67;;;12.33;;
10120;SDS011;5100;45.176;5.714;2023-02-28T11:12:41;13.83;;;12.43;;
10120;SDS011;5100;45.176;5.714;2023-02-28T11:15:22;12.80;;;11.70;;
10120;SDS011;5100;45.176;5.714;2023-02-28T11:17:54;13.30;;;11.97;;
10120;SDS011;5100;45.176;5.714;2023-02-28T11:20:46;13.27;;;11.97;;
10120;SDS011;5100;45.176;5.714;2023-02-28T11:23:18;13.33;;;12.10;;
10120;SDS011;5100;45.176;5.714;2023-02-28T11:25:50;12.93;;;11.37;;
10120;SDS011;5100;45.176;5.714;2023-02-28T11:28:24;12.43;;;11.23;;
10120;SDS011;5100;45.176;5.714;2023-02-28T11:38:44;12.00;;;10.90;;
10120;SDS011;5100;45.176;5.714;2023-02-28T11:44:16;11.30;;;10.30;;
10120;SDS011;5100;45.176;5.714;2023-02-28T11:46:57;11.83;;;10.63;;
10120;SDS011;5100;45.176;5.714;2023-02-28T11:55:04;12.17;;;11.07;;
10120;SDS011;5100;45.176;5.714;2023-02-28T11:57:36;11.80;;;10.50;;
10120;SDS011;5100;45.176;5.714;2023-02-28T12:03:37;13.07;;;11.50;;
10120;SDS011;5100;45.176;5.714;2023-02-28T12:11:57;12.53;;;11.43;;
10120;SDS011;5100;45.176;5.714;2023-02-28T12:17:34;11.87;;;10.87;;
10120;SDS011;5100;45.176;5.714;2023-02-28T12:28:50;11.87;;;10.77;;
10120;SDS011;5100;45.176;5.714;2023-02-28T12:33:51;11.43;;;10.43;;
10120;SDS011;5100;45.176;5.714;2023-02-28T12:36:21;12.10;;;10.00;;
10120;SDS011;5100;45.176;5.714;2023-02-28T12:42:01;11.90;;;10.63;;
10120;SDS011;5100;45.176;5.714;2023-02-28T12:44:42;11.23;;;10.13;;
10120;SDS011;5100;45.176;5.714;2023-02-28T12:47:14;8.97;;;7.90;;
10120;SDS011;5100;45.176;5.714;2023-02-28T12:50:02;11.80;;;10.80;;
10120;SDS011;5100;45.176;5.714;2023-02-28T12:52:35;12.40;;;11.20;;
10120;SDS011;5100;45.176;5.714;2023-02-28T12:55:04;11.93;;;10.83;;
10120;SDS011;5100;45.176;5.714;2023-02-28T12:57:57;12.67;;;11.57;;
10120;SDS011;5100;45.176;5.714;2023-02-28T13:03:34;11.20;;;10.10;;
10120;SDS011;5100;45.176;5.714;2023-02-28T13:06:16;10.90;;;9.83;;
10120;SDS011;5100;45.176;5.714;2023-02-28T13:11:37;10.90;;;9.90;;
10120;SDS011;5100;45.176;5.714;2023-02-28T13:19:41;10.77;;;9.87;;
10120;SDS011;5100;45.176;5.714;2023-02-28T13:22:19;10.17;;;9.23;;
10120;SDS011;5100;45.176;5.714;2023-02-28T13:25:49;11.00;;;10.00;;
10120;SDS011;5100;45.176;5.714;2023-02-28T13:27:50;11.57;;;10.47;;
10120;SDS011;5100;45.176;5.714;2023-02-28T13:44:11;11.00;;;10.03;;
10120;SDS011;5100;45.176;5.714;2023-02-28T13:49:31;11.73;;;10.70;;
10120;SDS011;5100;45.176;5.714;2023-02-28T14:05:22;11.70;;;10.40;;
10120;SDS011;5100;45.176;5.714;2023-02-28T14:07:55;10.77;;;9.90;;
10120;SDS011;5100;45.176;5.714;2023-02-28T14:10:33;9.93;;;9.13;;
10120;SDS011;5100;45.176;5.714;2023-02-28T14:13:50;13.53;;;9.90;;
10120;SDS011;5100;45.176;5.714;2023-02-28T14:16:13;9.90;;;9.20;;
10120;SDS011;5100;45.176;5.714;2023-02-28T14:18:48;10.77;;;9.77;;
10120;SDS011;5100;45.176;5.714;2023-02-28T14:21:21;10.03;;;9.23;;
10120;SDS011;5100;45.176;5.714;2023-02-28T14:24:09;10.93;;;9.93;;
10120;SDS011;5100;45.176;5.714;2023-02-28T14:37:20;10.67;;;9.60;;
10120;SDS011;5100;45.176;5.714;2023-02-28T14:39:56;11.30;;;10.30;;
10120;SDS011;5100;45.176;5.714;2023-02-28T14:44:58;10.87;;;9.90;;
10120;SDS011;5100;45.176;5.714;2023-02-28T14:47:28;10.10;;;9.10;;
10120;SDS011;5100;45.176;5.714;2023-02-28T14:50:00;11.00;;;9.93;;
10120;SDS011;5100;45.176;5.714;2023-02-28T14:52:30;11.13;;;10.17;;
10120;SDS011;5100;45.176;5.714;2023-02-28T14:54:59;11.27;;;10.17;;
10120;SDS011;5100;45.176;5.714;2023-02-28T14:57:30;12.97;;;10.73;;
10120;SDS011;5100;45.176;5.714;2023-02-28T15:00:02;11.97;;;10.77;;
10120;SDS011;5100;45.176;5.714;2023-02-28T15:02:39;11.10;;;10.00;;
10120;SDS011;5100;45.176;5.714;2023-02-28T15:05:16;10.67;;;9.77;;
10120;SDS011;5100;45.176;5.714;2023-02-28T15:08:29;11.27;;;10.17;;
10120;SDS011;5100;45.176;5.714;2023-02-28T15:16:08;12.23;;;11.03;;
10120;SDS011;5100;45.176;5.714;2023-02-28T15:18:57;12.07;;;10.43;;
10120;SDS011;5100;45.176;5.714;2023-02-28T15:21:37;11.37;;;10.20;;
10120;SDS011;5100;45.176;5.714;2023-02-28T15:24:11;11.47;;;10.40;;
10120;SDS011;5100;45.176;5.714;2023-02-28T15:26:43;11.70;;;10.50;;
10120;SDS011;5100;45.176;5.714;2023-02-28T15:29:19;11.83;;;10.83;;
10120;SDS011;5100;45.176;5.714;2023-02-28T15:31:55;13.10;;;11.00;;
10120;SDS011;5100;45.176;5.714;2023-02-28T15:34:39;12.20;;;11.00;;
10120;SDS011;5100;45.176;5.714;2023-02-28T15:39:52;11.57;;;10.50;;
10120;SDS011;5100;45.176;5.714;2023-02-28T15:42:20;13.67;;;12.47;;
10120;SDS011;5100;45.176;5.714;2023-02-28T15:44:47;12.03;;;10.83;;
10120;SDS011;5100;45.176;5.714;2023-02-28T15:49:45;11.43;;;10.43;;
10120;SDS011;5100;45.176;5.714;2023-02-28T15:52:39;11.87;;;10.80;;
10120;SDS011;5100;45.176;5.714;2023-02-28T15:57:48;10.77;;;9.77;;
10120;SDS011;5100;45.176;5.714;2023-02-28T16:00:20;11.80;;;10.70;;
10120;SDS011;5100;45.176;5.714;2023-02-28T16:02:49;11.37;;;10.30;;
10120;SDS011;5100;45.176;5.714;2023-02-28T16:05:23;11.47;;;10.47;;
10120;SDS011;5100;45.176;5.714;2023-02-28T16:07:58;10.53;;;9.73;;
10120;SDS011;5100;45.176;5.714;2023-02-28T16:10:43;11.83;;;10.67;;
10120;SDS011;5100;45.176;5.714;2023-02-28T16:13:10;11.87;;;10.87;;
10120;SDS011;5100;45.176;5.714;2023-02-28T16:15:41;11.57;;;10.47;;
10120;SDS011;5100;45.176;5.714;2023-02-28T16:18:11;10.90;;;10.00;;
10120;SDS011;5100;45.176;5.714;2023-02-28T16:20:38;12.93;;;11.73;;
10120;SDS011;5100;45.176;5.714;2023-02-28T16:23:04;11.00;;;10.00;;
10120;SDS011;5100;45.176;5.714;2023-02-28T16:25:37;10.80;;;9.73;;
10120;SDS011;5100;45.176;5.714;2023-02-28T16:28:24;11.47;;;10.50;;
10120;SDS011;5100;45.176;5.714;2023-02-28T16:30:59;11.10;;;10.00;;
10120;SDS011;5100;45.176;5.714;2023-02-28T16:33:28;13.20;;;11.00;;
10120;SDS011;5100;45.176;5.714;2023-02-28T16:35:55;11.57;;;10.47;;
10120;SDS011;5100;45.176;5.714;2023-02-28T16:38:21;11.00;;;10.00;;
10120;SDS011;5100;45.176;5.714;2023-02-28T16:40:49;12.43;;;10.83;;
10120;SDS011;5100;45.176;5.714;2023-02-28T16:43:20;11.23;;;10.33;;
10120;SDS011;5100;45.176;5.714;2023-02-28T16:45:58;12.30;;;9.90;;
10120;SDS011;5100;45.176;5.714;2023-02-28T16:48:26;11.77;;;10.63;;
10120;SDS011;5100;45.176;5.714;2023-02-28T16:50:52;12.10;;;11.00;;
10120;SDS011;5100;45.176;5.714;2023-02-28T16:53:19;12.27;;;11.00;;
10120;SDS011;5100;45.176;5.714;2023-02-28T16:55:45;11.53;;;10.60;;
10120;SDS011;5100;45.176;5.714;2023-02-28T16:58:13;12.60;;;11.53;;
10120;SDS011;5100;45.176;5.714;2023-02-28T17:00:41;11.47;;;10.43;;
10120;SDS011;5100;45.176;5.714;2023-02-28T17:03:26;12.03;;;11.03;;
10120;SDS011;5100;45.176;5.714;2023-02-28T17:05:53;11.83;;;10.67;;
10120;SDS011;5100;45.176;5.714;2023-02-28T17:08:19;11.40;;;10.50;;
10120;SDS011;5100;45.176;5.714;2023-02-28T17:10:45;12.00;;;10.90;;
10120;SDS011;5100;45.176;5.714;2023-02-28T17:13:12;11.70;;;10.70;;
10120;SDS011;5100;45.176;5.714;2023-02-28T17:15:38;11.40;;;10.40;;
10120;SDS011;5100;45.176;5.714;2023-02-28T17:18:04;11.87;;;10.87;;
10120;SDS011;5100;45.176;5.714;2023-02-28T17:20:31;12.57;;;11.47;;
10120;SDS011;5100;45.176;5.714;2023-02-28T17:22:57;12.80;;;11.67;;
10120;SDS011;5100;45.176;5.714;2023-02-28T17:25:23;12.20;;;11.10;;
10120;SDS011;5100;45.176;5.714;2023-02-28T17:27:50;11.70;;;10.60;;
10120;SDS011;5100;45.176;5.714;2023-02-28T17:30:21;12.80;;;11.50;;
10120;SDS011;5100;45.176;5.714;2023-02-28T17:32:49;13.77;;;12.23;;
10120;SDS011;5100;45.176;5.714;2023-02-28T17:35:16;11.87;;;10.87;;
10120;SDS011;5100;45.176;5.714;2023-02-28T17:37:42;12.50;;;11.10;;
10120;SDS011;5100;45.176;5.714;2023-02-28T17:40:12;11.33;;;10.43;;
10120;SDS011;5100;45.176;5.714;2023-02-28T17:42:45;12.83;;;11.50;;
10120;SDS011;5100;45.176;5.714;2023-02-28T17:45:11;11.93;;;10.73;;
10120;SDS011;5100;45.176;5.714;2023-02-28T17:47:38;12.00;;;10.80;;
10120;SDS011;5100;45.176;5.714;2023-02-28T17:50:05;11.93;;;10.73;;
10120;SDS011;5100;45.176;5.714;2023-02-28T17:52:31;12.17;;;11.07;;
10120;SDS011;5100;45.176;5.714;2023-02-28T17:55:02;12.00;;;10.90;;
10120;SDS011;5100;45.176;5.714;2023-02-28T17:57:30;11.10;;;10.20;;
10120;SDS011;5100;45.176;5.714;2023-02-28T17:59:56;11.90;;;10.83;;